Details From LXGB - Gibraltar
To DAOR - BECHAR
Flight Number -
Tags generated
Created
Modified
Stats Distance 329 nm / 609 km
Max Altitude 34,000 ft / 10,363 m
Waypoints 4
Social Downloads 0
Likes 0
Share VATSIM

Download

Looking for another format? Having issues loading an existing format? Contact us
Advertisement - Login to hide

Notes

Basic altitude profile: - Ascent Rate: 1000ft/min - Ascent Speed: 160kts - Cruise Altitude: 9000ft - Cruise Speed: 190kts - Descent Rate: 1000ft/min - Descent Speed: 180kts Options: - Use NATs: yes - Use PACOTS: yes - Use low airways: no - Use high airways: no

Route

LXGB 3500N0500W 3400N0500W DAOR

ID Type Via Altitude Latitude Longitude Leg Dist Tot Dist Heading (true) Name
O LXGB APT - 0 ft / 0 m 36.15121˚ -5.34966˚ - 0 nm - Gibraltar
3500N0500W LATLON - 25,400 ft / 7,742 m 35.00000˚ -5.00000˚ 71 nm 71 nm 166° / 166° -
3400N0500W LATLON - 34,000 ft / 10,363 m 34.00000˚ -5.00000˚ 60 nm 131 nm 180° / 180° -
O DAOR APT - 0 ft / 0 m 31.64575˚ -2.26986˚ 197 nm 328 nm 135° / 136° BECHAR

Altitude Profile

Advertisement - Login to hide

Weather


0- 5 10 15 20 25 30 35+ Temperature / ° C

Clouds and Precipitation
Forecast for 2018-05-26 06:00 UTC. Updated 3 hours ago

Ground ~20,000 ft ~40,000 ft Winds

LXGB

Details ICAO LXGB (GIB)
Name Gibraltar
Region Gibralter
Timezone Europe/Gibraltar (UTC+2.0)
Stats Elevation 15 ft / 5 m (AMSL)
Location 36.151209° -5.349664°
Runways 1
Magnetic Variation 1.072° W

METAR

LXGB 260750Z 25003KT 9999 FEW026 18/13 Q1013 NOSIG

Decode

TAF

Not found

Departure Runways

ID Width Length Bearing (true) Bearing (mag) Surface Threshold Offset Overrun Length
27 151 ft / 46 m 5,992 ft / 1,826 m 267.56° 268.63° Asphalt 367 ft / 112 m 89 ft / 27 m
9 151 ft / 46 m 5,992 ft / 1,826 m 87.54° 88.61° Asphalt 299 ft / 91 m 52 ft / 16 m

DAOR

Details ICAO DAOR (CBH)
Name BECHAR
Region Algeria
Timezone Africa/Algiers (UTC+1.0)
Stats Elevation 2,661 ft / 811 m (AMSL)
Location 31.645745° -2.269862°
Runways 2
Magnetic Variation 0.327° W

METAR

DAOR 260800Z 20010KT CAVOK 26/M02 Q1014

Decode

TAF

Not found

Destination Runways

ID Width Length Bearing (true) Bearing (mag) Surface Threshold Offset Overrun Length
06 148 ft / 45 m 12,238 ft / 3,730 m 59.85° 60.18° Asphalt 0 ft / 0 m 0 ft / 0 m
18 148 ft / 45 m 9,873 ft / 3,009 m 179.95° 180.28° Asphalt 0 ft / 0 m 0 ft / 0 m
24 148 ft / 45 m 12,238 ft / 3,730 m 239.86° 240.19° Asphalt 2,370 ft / 722 m 0 ft / 0 m
36 148 ft / 45 m 9,873 ft / 3,009 m 359.95° 0.28° Asphalt 0 ft / 0 m 0 ft / 0 m

Popular Alternatives